Aviation Digital Data Service (ADDS)

Output produced by TAFs form (2239 UTC 24 April 2014)
found at http://www.aviationweather.gov/adds/tafs/
 
KRIC 241727Z 2418/2518 34006KT P6SM SCT150 
     FM250000 VRB02KT P6SM SCT250 
     FM251300 17012KT P6SM SCT060 OVC150